createdAt,value
2018-05-12T00:00:52.757Z,724.47
2018-05-12T00:01:53.227Z,724.45
2018-05-12T00:02:53.701Z,724.51
2018-05-12T00:03:54.173Z,724.48
2018-05-12T00:04:54.646Z,724.47
2018-05-12T00:05:55.153Z,724.46
2018-05-12T00:06:55.593Z,724.47
2018-05-12T00:07:56.066Z,724.43
2018-05-12T00:08:56.540Z,724.39
2018-05-12T00:09:57.014Z,724.40
2018-05-12T00:10:57.486Z,724.42
2018-05-12T00:11:57.962Z,724.46
2018-05-12T00:12:58.434Z,724.45
2018-05-12T00:13:58.908Z,724.41
2018-05-12T00:14:59.420Z,724.45
2018-05-12T00:15:59.856Z,724.46
2018-05-12T00:17:00.330Z,724.37
2018-05-12T00:18:00.807Z,724.40
2018-05-12T00:19:01.280Z,724.40
2018-05-12T00:20:01.754Z,724.39
2018-05-12T00:21:02.230Z,724.39
2018-05-12T00:22:02.705Z,724.32
2018-05-12T00:23:03.229Z,724.39
2018-05-12T00:24:03.656Z,724.38
2018-05-12T00:25:04.127Z,724.38
2018-05-12T00:26:04.603Z,724.37
2018-05-12T00:27:05.077Z,724.36
2018-05-12T00:28:05.550Z,724.34
2018-05-12T00:29:06.024Z,724.32
2018-05-12T00:30:06.500Z,724.38
2018-05-12T00:31:06.972Z,724.31
2018-05-12T00:32:07.448Z,724.32
2018-05-12T00:33:08.120Z,724.36
2018-05-12T00:34:08.392Z,724.35
2018-05-12T00:35:08.864Z,724.33
2018-05-12T00:36:09.339Z,724.34
2018-05-12T00:37:09.810Z,724.37
2018-05-12T00:38:10.284Z,724.34
2018-05-12T00:39:10.755Z,724.33
2018-05-12T00:40:11.229Z,724.32
2018-05-12T00:41:11.699Z,724.29
2018-05-12T00:42:12.172Z,724.32
2018-05-12T00:43:12.693Z,724.25
2018-05-12T00:44:13.114Z,724.31
2018-05-12T00:45:13.584Z,724.25
2018-05-12T00:46:14.059Z,724.29
2018-05-12T00:47:14.527Z,724.27
2018-05-12T00:48:14.997Z,724.26
2018-05-12T00:49:15.467Z,724.24
2018-05-12T00:50:15.938Z,724.30
2018-05-12T00:51:16.408Z,724.23
2018-05-12T00:52:16.886Z,724.24
2018-05-12T00:53:17.352Z,724.28
2018-05-12T00:54:17.820Z,724.23
2018-05-12T00:55:18.290Z,724.23
2018-05-12T00:56:18.965Z,724.25
2018-05-12T00:57:19.232Z,724.25
2018-05-12T00:58:19.705Z,724.24
2018-05-12T00:59:20.174Z,724.25
2018-05-12T01:00:20.645Z,724.26
2018-05-12T01:01:21.114Z,724.15
2018-05-12T01:02:21.586Z,724.15
2018-05-12T01:03:22.056Z,724.19
2018-05-12T01:04:22.529Z,724.12
2018-05-12T01:05:22.999Z,724.17
2018-05-12T01:06:23.472Z,724.19
2018-05-12T01:07:23.943Z,724.17
2018-05-12T01:08:24.419Z,724.18
2018-05-12T01:09:24.886Z,724.20
2018-05-12T01:10:25.358Z,724.15
2018-05-12T01:11:25.829Z,724.19
2018-05-12T01:12:26.303Z,724.19
2018-05-12T01:13:26.774Z,724.18
2018-05-12T01:14:27.248Z,724.19
2018-05-12T01:15:27.719Z,724.14
2018-05-12T01:16:28.192Z,724.13
2018-05-12T01:17:28.667Z,724.12
2018-05-12T01:18:29.137Z,724.12
2018-05-12T01:19:29.611Z,724.09
2018-05-12T01:20:30.087Z,724.11
2018-05-12T01:21:30.558Z,724.12
2018-05-12T01:22:31.031Z,724.15
2018-05-12T01:23:31.503Z,724.10
2018-05-12T01:24:31.978Z,724.12
2018-05-12T01:25:32.450Z,724.10
2018-05-12T01:26:32.926Z,724.12
2018-05-12T01:27:33.400Z,724.09
2018-05-12T01:28:33.874Z,724.07
2018-05-12T01:29:34.349Z,724.10
2018-05-12T01:30:34.821Z,724.07
2018-05-12T01:31:35.297Z,724.08
2018-05-12T01:32:35.771Z,724.08
2018-05-12T01:33:36.299Z,724.09
2018-05-12T01:34:36.721Z,724.03
2018-05-12T01:35:37.194Z,724.03
2018-05-12T01:36:37.672Z,724.07
2018-05-12T01:37:38.143Z,724.02
2018-05-12T01:38:38.618Z,724.01
2018-05-12T01:39:39.092Z,724.01
2018-05-12T01:40:39.571Z,724.04
2018-05-12T01:41:40.041Z,724.04
2018-05-12T01:42:40.514Z,724.01
2018-05-12T01:43:40.989Z,724.02
2018-05-12T01:44:41.459Z,723.97
2018-05-12T01:45:41.933Z,724.02
2018-05-12T01:46:42.408Z,723.98
2018-05-12T01:47:42.881Z,724.01
2018-05-12T01:48:43.353Z,723.98
2018-05-12T01:49:43.827Z,723.96
2018-05-12T01:50:44.298Z,723.96
2018-05-12T01:51:44.769Z,724.02
2018-05-12T01:52:45.240Z,723.99
2018-05-12T01:53:45.764Z,723.95
2018-05-12T01:54:46.186Z,723.99
2018-05-12T01:55:46.656Z,723.98
2018-05-12T01:56:47.128Z,723.97
2018-05-12T01:57:47.598Z,723.92
2018-05-12T01:58:48.070Z,723.93
2018-05-12T01:59:48.539Z,723.92
2018-05-12T02:00:49.012Z,723.96
2018-05-12T02:01:49.481Z,723.96
2018-05-12T02:02:49.954Z,723.93
2018-05-12T02:03:50.472Z,723.95
2018-05-12T02:04:50.893Z,723.95
2018-05-12T02:05:51.366Z,723.93
2018-05-12T02:06:51.835Z,723.97
2018-05-12T02:07:52.305Z,723.99
2018-05-12T02:08:52.776Z,723.92
2018-05-12T02:09:53.245Z,723.93
2018-05-12T02:10:53.722Z,723.93
2018-05-12T02:11:54.186Z,723.94
2018-05-12T02:12:54.658Z,723.93
2018-05-12T02:13:55.181Z,723.94
2018-05-12T02:14:55.602Z,723.88
2018-05-12T02:15:56.072Z,723.95
2018-05-12T02:16:56.541Z,723.96
2018-05-12T02:17:57.014Z,723.92
2018-05-12T02:18:57.537Z,723.94
2018-05-12T02:19:57.957Z,723.96
2018-05-12T02:20:58.428Z,723.96
2018-05-12T02:21:58.905Z,723.97
2018-05-12T02:22:59.373Z,723.97
2018-05-12T02:23:59.844Z,723.96
2018-05-12T02:25:00.320Z,723.96
2018-05-12T02:26:00.790Z,723.98
2018-05-12T02:27:01.261Z,723.99
2018-05-12T02:28:01.734Z,724.00
2018-05-12T02:29:02.206Z,724.04
2018-05-12T02:30:02.687Z,723.96
2018-05-12T02:31:03.153Z,723.95
2018-05-12T02:32:03.623Z,723.92
2018-05-12T02:33:04.098Z,724.03
2018-05-12T02:34:04.572Z,724.00
2018-05-12T02:35:05.045Z,723.96
2018-05-12T02:36:05.522Z,723.97
2018-05-12T02:37:05.992Z,723.90
2018-05-12T02:38:06.463Z,723.90
2018-05-12T02:39:06.940Z,723.95
2018-05-12T02:40:07.414Z,723.92
2018-05-12T02:41:07.887Z,723.96
2018-05-12T02:42:08.360Z,723.94
2018-05-12T02:43:08.836Z,723.94
2018-05-12T02:44:09.311Z,723.93
2018-05-12T02:45:09.782Z,723.89
2018-05-12T02:46:10.257Z,723.89
2018-05-12T02:47:10.732Z,723.97
2018-05-12T02:48:11.209Z,723.96
2018-05-12T02:49:11.681Z,723.91
2018-05-12T02:50:12.156Z,723.91
2018-05-12T02:51:12.631Z,723.95
2018-05-12T02:52:13.104Z,723.94
2018-05-12T02:53:13.579Z,723.90
2018-05-12T02:54:14.105Z,723.88
2018-05-12T02:55:14.531Z,723.91
2018-05-12T02:56:15.000Z,723.89
2018-05-12T02:57:15.475Z,723.86
2018-05-12T02:58:15.947Z,723.83
2018-05-12T02:59:16.419Z,723.85
2018-05-12T03:00:16.894Z,723.86
2018-05-12T03:01:17.367Z,723.87
2018-05-12T03:02:17.841Z,723.88
2018-05-12T03:03:18.315Z,723.81
2018-05-12T03:04:18.783Z,723.90
2018-05-12T03:05:19.257Z,723.83
2018-05-12T03:06:19.729Z,723.91
2018-05-12T03:07:20.202Z,723.92
2018-05-12T03:08:20.673Z,723.84
2018-05-12T03:09:21.144Z,723.89
2018-05-12T03:10:21.613Z,723.84
2018-05-12T03:11:22.086Z,723.81
2018-05-12T03:12:22.557Z,723.87
2018-05-12T03:13:23.032Z,723.86
2018-05-12T03:14:23.551Z,723.84
2018-05-12T03:15:23.969Z,723.86
2018-05-12T03:16:24.438Z,723.86
2018-05-12T03:17:24.908Z,723.82
2018-05-12T03:18:25.380Z,723.87
2018-05-12T03:19:25.851Z,723.89
2018-05-12T03:20:26.321Z,723.86
2018-05-12T03:21:26.790Z,723.88
2018-05-12T03:22:27.261Z,723.90
2018-05-12T03:23:27.735Z,723.88
2018-05-12T03:24:28.202Z,723.85
2018-05-12T03:25:28.673Z,723.87
2018-05-12T03:26:29.144Z,723.84
2018-05-12T03:27:29.615Z,723.83
2018-05-12T03:28:30.085Z,723.90
2018-05-12T03:29:30.555Z,723.89
2018-05-12T03:30:31.027Z,723.84
2018-05-12T03:31:31.712Z,723.83
2018-05-12T03:32:31.968Z,723.86
2018-05-12T03:33:32.440Z,723.82
2018-05-12T03:34:32.912Z,723.82
2018-05-12T03:35:33.383Z,723.85
2018-05-12T03:36:33.855Z,723.89
2018-05-12T03:37:34.326Z,723.89
2018-05-12T03:38:34.797Z,723.91
2018-05-12T03:39:35.268Z,723.86
2018-05-12T03:40:35.740Z,723.90
2018-05-12T03:41:36.212Z,723.93
2018-05-12T03:42:36.686Z,723.96
2018-05-12T03:43:37.157Z,723.93
2018-05-12T03:44:37.628Z,723.94
2018-05-12T03:45:38.104Z,723.92
2018-05-12T03:46:38.576Z,723.92
2018-05-12T03:47:39.082Z,723.97
2018-05-12T03:48:39.518Z,723.95
2018-05-12T03:49:39.992Z,723.94
2018-05-12T03:50:40.470Z,723.97
2018-05-12T03:51:40.937Z,723.95
2018-05-12T03:52:41.411Z,723.93
2018-05-12T03:53:41.884Z,723.96
2018-05-12T03:54:42.359Z,723.95
2018-05-12T03:55:42.832Z,723.96
2018-05-12T03:56:43.305Z,723.98
2018-05-12T03:57:43.779Z,723.94
2018-05-12T03:58:44.255Z,724.02
2018-05-12T03:59:44.778Z,723.97
2018-05-12T04:00:45.199Z,724.01
2018-05-12T04:01:45.675Z,723.99
2018-05-12T04:02:46.147Z,723.96
2018-05-12T04:03:46.621Z,723.97
2018-05-12T04:04:47.095Z,724.00
2018-05-12T04:05:47.570Z,723.98
2018-05-12T04:06:48.046Z,723.94
2018-05-12T04:07:48.519Z,724.00
2018-05-12T04:08:48.993Z,723.97
2018-05-12T04:09:49.467Z,723.92
2018-05-12T04:10:49.943Z,724.03
2018-05-12T04:11:50.415Z,724.01
2018-05-12T04:12:50.891Z,724.01
2018-05-12T04:13:51.364Z,724.01
2018-05-12T04:14:51.838Z,724.05
2018-05-12T04:15:52.310Z,724.06
2018-05-12T04:16:52.783Z,724.04
2018-05-12T04:18:53.731Z,724.06
2018-05-12T04:19:54.204Z,724.01
2018-05-12T04:20:54.758Z,724.03
2018-05-12T04:22:55.620Z,724.00
2018-05-12T04:23:56.094Z,724.01
2018-05-12T04:24:56.764Z,724.00
2018-05-12T04:25:57.033Z,724.06
2018-05-12T04:26:57.506Z,724.08
2018-05-12T04:27:57.977Z,724.04
2018-05-12T04:28:58.448Z,724.05
2018-05-12T04:29:58.921Z,724.06
2018-05-12T04:30:59.411Z,723.98
2018-05-12T04:31:59.860Z,724.02
2018-05-12T04:33:00.330Z,724.01
2018-05-12T04:34:00.802Z,723.98
2018-05-12T04:35:01.274Z,723.96
2018-05-12T04:36:01.742Z,723.95
2018-05-12T04:37:02.211Z,723.96
2018-05-12T04:38:02.681Z,723.97
2018-05-12T04:39:03.154Z,723.97
2018-05-12T04:40:03.673Z,723.96
2018-05-12T04:41:04.093Z,723.98
2018-05-12T04:42:04.564Z,723.98
2018-05-12T04:43:05.033Z,723.95
2018-05-12T04:44:05.513Z,723.95
2018-05-12T04:45:05.976Z,723.96
2018-05-12T04:46:06.649Z,723.94
2018-05-12T04:47:06.917Z,724.01
2018-05-12T04:48:07.388Z,723.96
2018-05-12T04:49:07.859Z,724.01
2018-05-12T04:50:08.380Z,723.97
2018-05-12T04:51:08.800Z,723.96
2018-05-12T04:52:09.272Z,723.94
2018-05-12T04:53:09.743Z,724.01
2018-05-12T04:54:10.282Z,723.89
2018-05-12T04:55:10.686Z,723.94
2018-05-12T04:56:11.161Z,723.93
2018-05-12T04:57:11.633Z,723.96
2018-05-12T04:58:12.186Z,723.96
2018-05-12T04:59:12.574Z,723.98
2018-05-12T05:00:13.097Z,723.93
2018-05-12T05:01:13.517Z,723.96
2018-05-12T05:02:13.991Z,723.93
2018-05-12T05:03:14.461Z,723.98
2018-05-12T05:04:14.940Z,723.96
2018-05-12T05:05:15.407Z,723.95
2018-05-12T05:06:15.881Z,723.97
2018-05-12T05:07:16.356Z,723.95
2018-05-12T05:08:16.884Z,723.98
2018-05-12T05:09:17.305Z,723.99
2018-05-12T05:10:17.822Z,723.91
2018-05-12T05:11:18.245Z,723.93
2018-05-12T05:12:18.718Z,723.92
2018-05-12T05:13:19.192Z,723.91
2018-05-12T05:14:19.666Z,723.90
2018-05-12T05:15:20.201Z,723.89
2018-05-12T05:16:20.613Z,723.94
2018-05-12T05:17:21.088Z,723.89
2018-05-12T05:18:21.562Z,723.96
2018-05-12T05:19:22.035Z,723.87
2018-05-12T05:20:22.511Z,723.82
2018-05-12T05:21:22.984Z,723.85
2018-05-12T05:22:23.459Z,723.82
2018-05-12T05:23:23.934Z,723.85
2018-05-12T05:24:24.407Z,723.81
2018-05-12T05:25:24.932Z,723.84
2018-05-12T05:26:25.363Z,723.84
2018-05-12T05:27:25.829Z,723.79
2018-05-12T05:28:26.306Z,723.87
2018-05-12T05:29:26.781Z,723.82
2018-05-12T05:30:27.254Z,723.83
2018-05-12T05:31:27.727Z,723.84
2018-05-12T05:32:28.200Z,723.85
2018-05-12T05:33:28.674Z,723.83
2018-05-12T05:34:29.147Z,723.81
2018-05-12T05:35:29.622Z,723.79
2018-05-12T05:36:30.095Z,723.80
2018-05-12T05:37:30.570Z,723.91
2018-05-12T05:38:31.041Z,723.83
2018-05-12T05:39:31.513Z,723.79
2018-05-12T05:40:31.987Z,723.83
2018-05-12T05:41:32.493Z,723.79
2018-05-12T05:42:32.934Z,723.81
2018-05-12T05:43:33.402Z,723.86
2018-05-12T05:44:33.875Z,723.84
2018-05-12T05:45:34.399Z,723.81
2018-05-12T05:46:34.817Z,723.79
2018-05-12T05:47:35.292Z,723.79
2018-05-12T05:48:35.763Z,723.80
2018-05-12T05:49:36.231Z,723.83
2018-05-12T05:50:36.704Z,723.85
2018-05-12T05:51:37.176Z,723.84
2018-05-12T05:52:37.645Z,723.86
2018-05-12T05:53:38.116Z,723.85
2018-05-12T05:54:38.587Z,723.76
2018-05-12T05:55:39.059Z,723.80
2018-05-12T05:56:39.533Z,723.88
2018-05-12T05:57:39.999Z,723.82
2018-05-12T05:58:40.542Z,723.82
2018-05-12T05:59:40.940Z,723.85
2018-05-12T06:00:41.465Z,723.86
2018-05-12T06:01:41.885Z,723.84
2018-05-12T06:02:42.359Z,723.83
2018-05-12T06:03:42.828Z,723.84
2018-05-12T06:04:43.301Z,723.84
2018-05-12T06:05:43.772Z,723.81
2018-05-12T06:06:44.246Z,723.88
2018-05-12T06:07:44.718Z,723.83
2018-05-12T06:08:45.188Z,723.87
2018-05-12T06:09:45.661Z,723.88
2018-05-12T06:10:46.136Z,723.88
2018-05-12T06:11:46.609Z,723.85
2018-05-12T06:12:47.080Z,723.84
2018-05-12T06:13:47.551Z,723.82
2018-05-12T06:14:48.025Z,723.85
2018-05-12T06:15:48.551Z,723.83
2018-05-12T06:16:48.972Z,723.85
2018-05-12T06:17:49.445Z,723.89
2018-05-12T06:18:49.923Z,723.88
2018-05-12T06:19:50.396Z,723.89
2018-05-12T06:20:50.874Z,723.85
2018-05-12T06:21:51.341Z,723.86
2018-05-12T06:22:51.817Z,723.84
2018-05-12T06:23:52.291Z,723.84
2018-05-12T06:24:52.767Z,723.85
2018-05-12T06:25:53.291Z,723.90
2018-05-12T06:26:53.717Z,723.90
2018-05-12T06:27:54.269Z,723.90
2018-05-12T06:28:54.666Z,723.85
2018-05-12T06:29:55.146Z,723.83
2018-05-12T06:30:55.617Z,723.86
2018-05-12T06:31:56.094Z,723.86
2018-05-12T06:32:56.573Z,723.85
2018-05-12T06:33:57.043Z,723.84
2018-05-12T06:34:57.517Z,723.84
2018-05-12T06:35:57.994Z,723.83
2018-05-12T06:36:58.471Z,723.83
2018-05-12T06:37:58.943Z,723.83
2018-05-12T06:38:59.422Z,723.88
2018-05-12T06:39:59.896Z,723.86
2018-05-12T06:41:00.370Z,723.80
2018-05-12T06:42:00.842Z,723.84
2018-05-12T06:43:01.318Z,723.93
2018-05-12T06:44:01.792Z,723.84
2018-05-12T06:45:02.269Z,723.80
2018-05-12T06:46:02.790Z,723.73
2018-05-12T06:47:03.214Z,723.84
2018-05-12T06:48:03.688Z,723.76
2018-05-12T06:49:04.161Z,723.81
2018-05-12T06:50:04.634Z,723.79
2018-05-12T06:51:05.107Z,723.76
2018-05-12T06:52:05.580Z,723.77
2018-05-12T06:53:06.054Z,723.79
2018-05-12T06:54:06.524Z,723.87
2018-05-12T06:55:06.998Z,723.83
2018-05-12T06:56:07.470Z,723.82
2018-05-12T06:57:07.942Z,723.84
2018-05-12T06:58:08.414Z,723.80
2018-05-12T06:59:08.888Z,723.81
2018-05-12T07:00:09.358Z,723.84
2018-05-12T07:01:09.881Z,723.80
2018-05-12T07:02:10.324Z,723.91
2018-05-12T07:03:10.774Z,723.85
2018-05-12T07:04:11.247Z,723.91
2018-05-12T07:05:11.720Z,723.87
2018-05-12T07:06:12.188Z,723.90
2018-05-12T07:08:13.133Z,723.91
2018-05-12T07:09:13.806Z,723.86
2018-05-12T07:10:14.077Z,723.90
2018-05-12T07:11:14.548Z,723.88
2018-05-12T07:12:15.045Z,723.88
2018-05-12T07:13:15.494Z,723.84
2018-05-12T07:14:15.964Z,723.89
2018-05-12T07:15:16.439Z,723.86
2018-05-12T07:16:16.910Z,723.89
2018-05-12T07:17:17.387Z,723.91
2018-05-12T07:18:17.853Z,723.86
2018-05-12T07:19:18.333Z,723.90
2018-05-12T07:20:18.800Z,723.90
2018-05-12T07:21:19.325Z,723.84
2018-05-12T07:22:19.747Z,723.88
2018-05-12T07:23:20.220Z,723.87
2018-05-12T07:24:20.697Z,723.91
2018-05-12T07:25:21.171Z,723.89
2018-05-12T07:26:21.643Z,723.91
2018-05-12T07:27:22.116Z,723.94
2018-05-12T07:28:22.592Z,723.91
2018-05-12T07:29:23.069Z,723.91
2018-05-12T07:30:23.543Z,723.90
2018-05-12T07:31:24.021Z,723.88
2018-05-12T07:32:24.494Z,723.92
2018-05-12T07:33:24.968Z,723.92
2018-05-12T07:34:25.441Z,723.90
2018-05-12T07:35:25.919Z,723.91
2018-05-12T07:36:26.443Z,723.93
2018-05-12T07:37:26.871Z,723.96
2018-05-12T07:38:27.344Z,723.96
2018-05-12T07:39:27.823Z,723.93
2018-05-12T07:40:28.299Z,723.93
2018-05-12T07:41:28.774Z,723.94
2018-05-12T07:42:29.249Z,723.91
2018-05-12T07:43:29.727Z,723.94
2018-05-12T07:44:30.204Z,723.94
2018-05-12T07:45:30.679Z,723.95
2018-05-12T07:46:31.202Z,723.92
2018-05-12T07:47:31.829Z,723.97
2018-05-12T07:48:32.103Z,723.95
2018-05-12T07:49:32.580Z,723.95
2018-05-12T07:50:33.053Z,723.90
2018-05-12T07:51:33.613Z,723.97
2018-05-12T07:52:34.002Z,723.90
2018-05-12T07:53:34.479Z,723.92
2018-05-12T07:54:34.952Z,723.90
2018-05-12T07:55:35.430Z,723.86
2018-05-12T07:56:36.157Z,723.90
2018-05-12T07:57:36.377Z,723.87
2018-05-12T07:58:36.851Z,723.93
2018-05-12T07:59:37.324Z,723.89
2018-05-12T08:00:37.798Z,723.90
2018-05-12T08:01:38.271Z,723.93
2018-05-12T08:02:38.743Z,723.84
2018-05-12T08:03:39.219Z,723.87
2018-05-12T08:04:39.693Z,723.90
2018-05-12T08:05:40.166Z,723.87
2018-05-12T08:06:40.638Z,723.90
2018-05-12T08:07:41.111Z,723.86
2018-05-12T08:08:41.589Z,723.89
2018-05-12T08:09:42.057Z,723.90
2018-05-12T08:10:42.527Z,723.88
2018-05-12T08:11:43.003Z,723.85
2018-05-12T08:12:43.476Z,723.83
2018-05-12T08:13:43.946Z,723.84
2018-05-12T08:14:44.420Z,723.83
2018-05-12T08:15:44.891Z,723.79
2018-05-12T08:16:45.413Z,723.85
2018-05-12T08:17:45.837Z,723.84
2018-05-12T08:18:46.306Z,723.87
2018-05-12T08:19:46.781Z,723.85
2018-05-12T08:20:47.252Z,723.90
2018-05-12T08:21:47.725Z,723.87
2018-05-12T08:22:48.195Z,723.90
2018-05-12T08:23:48.667Z,723.92
2018-05-12T08:24:49.140Z,723.89
2018-05-12T08:25:49.616Z,723.86
2018-05-12T08:26:50.158Z,723.84
2018-05-12T08:27:50.558Z,723.81
2018-05-12T08:28:51.031Z,723.86
2018-05-12T08:29:51.504Z,723.93
2018-05-12T08:30:51.976Z,723.87
2018-05-12T08:31:52.451Z,723.83
2018-05-12T08:32:52.925Z,723.92
2018-05-12T08:33:53.398Z,723.82
2018-05-12T08:34:53.871Z,723.89
2018-05-12T08:35:54.346Z,723.87
2018-05-12T08:36:54.820Z,723.85
2018-05-12T08:37:55.295Z,723.87
2018-05-12T08:38:55.769Z,723.88
2018-05-12T08:39:56.245Z,723.88
2018-05-12T08:40:56.720Z,723.84
2018-05-12T08:41:57.198Z,723.86
2018-05-12T08:42:57.675Z,723.83
2018-05-12T08:43:58.147Z,723.84
2018-05-12T08:44:58.624Z,723.84
2018-05-12T08:45:59.144Z,723.85
2018-05-12T08:46:59.577Z,723.79
2018-05-12T08:48:00.054Z,723.83
2018-05-12T08:49:00.529Z,723.81
2018-05-12T08:50:01.009Z,723.84
2018-05-12T08:51:01.483Z,723.83
2018-05-12T08:52:01.961Z,723.81
2018-05-12T08:53:02.436Z,723.82
2018-05-12T08:54:02.913Z,723.88
2018-05-12T08:55:03.389Z,723.90
2018-05-12T08:56:03.871Z,723.85
2018-05-12T08:57:04.343Z,723.82
2018-05-12T08:58:04.820Z,723.83
2018-05-12T08:59:05.295Z,723.86
2018-05-12T09:00:05.771Z,723.83
2018-05-12T09:01:06.247Z,723.85
2018-05-12T09:02:06.726Z,723.79
2018-05-12T09:03:07.197Z,723.87
2018-05-12T09:04:07.680Z,723.89
2018-05-12T09:05:08.150Z,723.82
2018-05-12T09:06:08.626Z,723.89
2018-05-12T09:07:09.105Z,723.84
2018-05-12T09:08:09.578Z,723.81
2018-05-12T09:09:10.052Z,723.83
2018-05-12T09:10:10.527Z,723.82
2018-05-12T09:11:11.002Z,723.87
2018-05-12T09:12:11.729Z,723.82
2018-05-12T09:13:11.953Z,723.87
2018-05-12T09:14:12.428Z,723.91
2018-05-12T09:15:12.901Z,723.88
2018-05-12T09:16:13.375Z,723.84
2018-05-12T09:17:13.849Z,723.87
2018-05-12T09:18:14.325Z,723.89
2018-05-12T09:19:14.814Z,723.87
2018-05-12T09:20:15.271Z,723.88
2018-05-12T09:21:15.745Z,723.84
2018-05-12T09:22:16.221Z,723.88
2018-05-12T09:23:16.693Z,723.87
2018-05-12T09:24:17.166Z,723.87
2018-05-12T09:25:17.643Z,723.87
2018-05-12T09:26:18.113Z,723.90
2018-05-12T09:27:18.636Z,723.83
2018-05-12T09:28:19.058Z,723.89
2018-05-12T09:29:19.531Z,723.93
2018-05-12T09:30:20.008Z,723.87
2018-05-12T09:31:20.477Z,723.91
2018-05-12T09:32:20.951Z,723.88
2018-05-12T09:33:21.423Z,723.90
2018-05-12T09:34:21.899Z,723.90
2018-05-12T09:35:22.373Z,723.90
2018-05-12T09:36:22.840Z,723.82
2018-05-12T09:37:23.313Z,723.84
2018-05-12T09:38:23.787Z,723.87
2018-05-12T09:39:24.258Z,723.85
2018-05-12T09:40:24.731Z,723.83
2018-05-12T09:41:25.203Z,723.86
2018-05-12T09:42:25.725Z,723.79
2018-05-12T09:43:26.147Z,723.84
2018-05-12T09:44:26.617Z,723.80
2018-05-12T09:45:27.090Z,723.81
2018-05-12T09:46:27.563Z,723.82
2018-05-12T09:47:28.086Z,723.84
2018-05-12T09:48:28.507Z,723.83
2018-05-12T09:49:28.978Z,723.83
2018-05-12T09:50:29.450Z,723.86
2018-05-12T09:51:29.922Z,723.84
2018-05-12T09:52:30.395Z,723.85
2018-05-12T09:53:30.866Z,723.82
2018-05-12T09:54:31.340Z,723.85
2018-05-12T09:55:31.827Z,723.76
2018-05-12T09:56:32.286Z,723.82
2018-05-12T09:57:32.757Z,723.80
2018-05-12T09:58:33.232Z,723.77
2018-05-12T09:59:33.717Z,723.83
2018-05-12T10:00:34.178Z,723.83
2018-05-12T10:01:34.652Z,723.80
2018-05-12T10:02:35.127Z,723.80
2018-05-12T10:03:35.606Z,723.78
2018-05-12T10:04:36.076Z,723.80
2018-05-12T10:05:36.553Z,723.86
2018-05-12T10:06:37.031Z,723.84
2018-05-12T10:07:37.501Z,723.76
2018-05-12T10:08:37.976Z,723.79
2018-05-12T10:09:38.469Z,723.80
2018-05-12T10:10:38.928Z,723.81
2018-05-12T10:11:39.403Z,723.82
2018-05-12T10:12:39.881Z,723.83
2018-05-12T10:13:40.356Z,723.79
2018-05-12T10:14:40.831Z,723.79
2018-05-12T10:15:41.309Z,723.78
2018-05-12T10:16:41.785Z,723.79
2018-05-12T10:17:42.311Z,723.78
2018-05-12T10:18:42.738Z,723.81
2018-05-12T10:19:43.212Z,723.79
2018-05-12T10:20:43.707Z,723.78
2018-05-12T10:21:44.166Z,723.75
2018-05-12T10:22:44.694Z,723.70
2018-05-12T10:23:45.118Z,723.80
2018-05-12T10:24:45.600Z,723.76
2018-05-12T10:25:46.072Z,723.77
2018-05-12T10:26:46.548Z,723.78
2018-05-12T10:27:47.025Z,723.83
2018-05-12T10:28:47.499Z,723.77
2018-05-12T10:29:47.977Z,723.75
2018-05-12T10:30:48.452Z,723.80
2018-05-12T10:31:48.926Z,723.73
2018-05-12T10:32:49.659Z,723.72
2018-05-12T10:33:49.877Z,723.75
2018-05-12T10:34:50.354Z,723.74
2018-05-12T10:35:50.829Z,723.78
2018-05-12T10:36:51.304Z,723.78
2018-05-12T10:37:51.780Z,723.76
2018-05-12T10:38:52.326Z,723.73
2018-05-12T10:39:52.730Z,723.73
2018-05-12T10:40:53.204Z,723.72
2018-05-12T10:41:53.677Z,723.75
2018-05-12T10:42:54.154Z,723.77
2018-05-12T10:43:54.629Z,723.72
2018-05-12T10:44:55.151Z,723.74
2018-05-12T10:45:55.577Z,723.73
2018-05-12T10:46:56.055Z,723.70
2018-05-12T10:47:56.526Z,723.73
2018-05-12T10:48:57.003Z,723.72
2018-05-12T10:49:57.473Z,723.68
2018-05-12T10:50:57.948Z,723.68
2018-05-12T10:51:58.421Z,723.67
2018-05-12T10:52:58.947Z,723.70
2018-05-12T10:53:59.368Z,723.71
2018-05-12T10:54:59.841Z,723.70
2018-05-12T10:56:00.314Z,723.66
2018-05-12T10:57:00.788Z,723.73
2018-05-12T10:58:01.313Z,723.68
2018-05-12T10:59:01.735Z,723.69
2018-05-12T11:00:02.208Z,723.71
2018-05-12T11:01:02.680Z,723.71
2018-05-12T11:02:03.191Z,723.70
2018-05-12T11:03:03.630Z,723.70
2018-05-12T11:04:04.097Z,723.74
2018-05-12T11:05:04.575Z,723.72
2018-05-12T11:06:05.044Z,723.74
2018-05-12T11:07:05.521Z,723.70
2018-05-12T11:08:05.989Z,723.73
2018-05-12T11:09:06.461Z,723.69
2018-05-12T11:10:06.934Z,723.71
2018-05-12T11:11:07.405Z,723.62
2018-05-12T11:12:07.881Z,723.64
2018-05-12T11:13:08.351Z,723.57
2018-05-12T11:14:08.821Z,723.56
2018-05-12T11:15:09.296Z,723.61
2018-05-12T11:16:09.792Z,723.55
2018-05-12T11:17:10.239Z,723.57
2018-05-12T11:18:10.711Z,723.59
2018-05-12T11:19:11.183Z,723.52
2018-05-12T11:20:11.727Z,723.55
2018-05-12T11:21:12.126Z,723.56
2018-05-12T11:22:12.597Z,723.53
2018-05-12T11:23:13.070Z,723.60
2018-05-12T11:24:13.541Z,723.60
2018-05-12T11:25:14.015Z,723.59
2018-05-12T11:26:14.485Z,723.54
2018-05-12T11:27:14.958Z,723.59
2018-05-12T11:28:15.428Z,723.56
2018-05-12T11:29:15.902Z,723.48
2018-05-12T11:30:16.374Z,723.50
2018-05-12T11:31:16.851Z,723.50
2018-05-12T11:32:17.411Z,723.49
2018-05-12T11:33:17.845Z,723.49
2018-05-12T11:34:18.270Z,723.51
2018-05-12T11:35:18.741Z,723.49
2018-05-12T11:36:19.215Z,723.53
2018-05-12T11:37:19.687Z,723.52
2018-05-12T11:38:20.163Z,723.51
2018-05-12T11:39:20.637Z,723.46
2018-05-12T11:40:21.112Z,723.45
2018-05-12T11:41:21.586Z,723.50
2018-05-12T11:42:22.062Z,723.49
2018-05-12T11:43:22.538Z,723.47
2018-05-12T11:44:23.019Z,723.46
2018-05-12T11:45:23.491Z,723.44
2018-05-12T11:46:23.965Z,723.44
2018-05-12T11:47:24.439Z,723.42
2018-05-12T11:48:24.966Z,723.46
2018-05-12T11:49:25.391Z,723.46
2018-05-12T11:50:25.870Z,723.46
2018-05-12T11:51:26.389Z,723.46
2018-05-12T11:52:26.821Z,723.40
2018-05-12T11:53:27.298Z,723.39
2018-05-12T11:54:27.776Z,723.41
2018-05-12T11:55:28.260Z,723.43
2018-05-12T11:56:28.728Z,723.46
2018-05-12T11:57:29.205Z,723.42
2018-05-12T11:58:29.703Z,723.42
2018-05-12T11:59:30.158Z,723.46
2018-05-12T12:00:30.637Z,723.47
2018-05-12T12:01:31.110Z,723.53
2018-05-12T12:02:31.588Z,723.48
2018-05-12T12:03:32.065Z,723.45
2018-05-12T12:04:32.537Z,723.49
2018-05-12T12:05:33.015Z,723.46
2018-05-12T12:06:33.489Z,723.41
2018-05-12T12:07:33.966Z,723.42
2018-05-12T12:08:34.442Z,723.45
2018-05-12T12:09:34.918Z,723.42
2018-05-12T12:10:35.391Z,723.45
2018-05-12T12:11:35.867Z,723.46
2018-05-12T12:12:36.345Z,723.41
2018-05-12T12:13:36.818Z,723.44
2018-05-12T12:14:37.294Z,723.43
2018-05-12T12:15:37.770Z,723.46
2018-05-12T12:16:38.333Z,723.45
2018-05-12T12:17:38.718Z,723.47
2018-05-12T12:18:39.194Z,723.50
2018-05-12T12:19:39.674Z,723.47
2018-05-12T12:20:40.143Z,723.43
2018-05-12T12:21:40.616Z,723.41
2018-05-12T12:22:41.098Z,723.39
2018-05-12T12:23:41.621Z,723.43
2018-05-12T12:24:42.041Z,723.42
2018-05-12T12:25:42.515Z,723.43
2018-05-12T12:26:42.987Z,723.42
2018-05-12T12:27:43.464Z,723.43
2018-05-12T12:28:43.935Z,723.45
2018-05-12T12:29:44.419Z,723.39
2018-05-12T12:30:44.885Z,723.38
2018-05-12T12:31:45.359Z,723.36
2018-05-12T12:32:45.833Z,723.40
2018-05-12T12:33:46.358Z,723.40
2018-05-12T12:34:46.777Z,723.41
2018-05-12T12:35:47.253Z,723.37
2018-05-12T12:36:47.723Z,723.38
2018-05-12T12:37:48.197Z,723.35